sensor_id;sensor_type;location;lat;lon;timestamp;P1;durP1;ratioP1;P2;durP2;ratioP2
44722;SDS011;30451;48.638;10.624;2024-03-02T00:02:18;2.28;;;1.50;;
44722;SDS011;30451;48.638;10.624;2024-03-02T00:04:44;2.10;;;1.33;;
44722;SDS011;30451;48.638;10.624;2024-03-02T00:07:10;2.45;;;1.50;;
44722;SDS011;30451;48.638;10.624;2024-03-02T00:09:39;2.53;;;1.20;;
44722;SDS011;30451;48.638;10.624;2024-03-02T00:12:05;2.38;;;1.40;;
44722;SDS011;30451;48.638;10.624;2024-03-02T00:14:31;2.10;;;1.40;;
44722;SDS011;30451;48.638;10.624;2024-03-02T00:16:57;2.00;;;1.50;;
44722;SDS011;30451;48.638;10.624;2024-03-02T00:19:22;2.40;;;1.50;;
44722;SDS011;30451;48.638;10.624;2024-03-02T00:21:48;2.67;;;1.40;;
44722;SDS011;30451;48.638;10.624;2024-03-02T00:27:09;2.55;;;1.50;;
44722;SDS011;30451;48.638;10.624;2024-03-02T00:29:40;2.40;;;1.30;;
44722;SDS011;30451;48.638;10.624;2024-03-02T00:32:13;2.00;;;1.30;;
44722;SDS011;30451;48.638;10.624;2024-03-02T00:34:40;1.90;;;1.30;;
44722;SDS011;30451;48.638;10.624;2024-03-02T00:37:06;1.73;;;1.15;;
44722;SDS011;30451;48.638;10.624;2024-03-02T00:39:32;2.15;;;1.25;;
44722;SDS011;30451;48.638;10.624;2024-03-02T00:41:58;1.95;;;1.35;;
44722;SDS011;30451;48.638;10.624;2024-03-02T00:44:25;2.13;;;1.40;;
44722;SDS011;30451;48.638;10.624;2024-03-02T00:46:59;2.30;;;1.27;;
44722;SDS011;30451;48.638;10.624;2024-03-02T00:49:25;1.40;;;1.00;;
44722;SDS011;30451;48.638;10.624;2024-03-02T00:51:52;1.92;;;1.10;;
44722;SDS011;30451;48.638;10.624;2024-03-02T00:54:22;2.13;;;1.30;;
44722;SDS011;30451;48.638;10.624;2024-03-02T00:56:50;1.50;;;1.00;;
44722;SDS011;30451;48.638;10.624;2024-03-02T00:59:17;2.33;;;1.20;;
44722;SDS011;30451;48.638;10.624;2024-03-02T01:01:43;1.63;;;1.02;;
44722;SDS011;30451;48.638;10.624;2024-03-02T01:04:09;2.00;;;1.27;;
44722;SDS011;30451;48.638;10.624;2024-03-02T01:06:35;2.17;;;1.40;;
44722;SDS011;30451;48.638;10.624;2024-03-02T01:09:01;1.30;;;1.02;;
44722;SDS011;30451;48.638;10.624;2024-03-02T01:11:27;1.95;;;1.15;;
44722;SDS011;30451;48.638;10.624;2024-03-02T01:13:53;1.60;;;1.10;;
44722;SDS011;30451;48.638;10.624;2024-03-02T01:16:19;2.25;;;1.30;;
44722;SDS011;30451;48.638;10.624;2024-03-02T01:18:45;2.38;;;1.17;;
44722;SDS011;30451;48.638;10.624;2024-03-02T01:21:11;1.63;;;1.13;;
44722;SDS011;30451;48.638;10.624;2024-03-02T01:23:36;1.65;;;1.10;;
44722;SDS011;30451;48.638;10.624;2024-03-02T01:26:02;2.08;;;1.20;;
44722;SDS011;30451;48.638;10.624;2024-03-02T01:28:28;1.83;;;1.13;;
44722;SDS011;30451;48.638;10.624;2024-03-02T01:30:54;2.15;;;1.20;;
44722;SDS011;30451;48.638;10.624;2024-03-02T01:33:20;2.25;;;1.27;;
44722;SDS011;30451;48.638;10.624;2024-03-02T01:35:46;1.88;;;1.10;;
44722;SDS011;30451;48.638;10.624;2024-03-02T01:38:12;1.75;;;1.10;;
44722;SDS011;30451;48.638;10.624;2024-03-02T01:40:38;2.42;;;1.20;;
44722;SDS011;30451;48.638;10.624;2024-03-02T01:43:04;2.38;;;1.38;;
44722;SDS011;30451;48.638;10.624;2024-03-02T01:45:31;2.05;;;1.27;;
44722;SDS011;30451;48.638;10.624;2024-03-02T01:47:57;1.40;;;1.00;;
44722;SDS011;30451;48.638;10.624;2024-03-02T01:50:29;1.40;;;1.10;;
44722;SDS011;30451;48.638;10.624;2024-03-02T01:52:57;1.45;;;1.05;;
44722;SDS011;30451;48.638;10.624;2024-03-02T01:55:23;1.90;;;1.20;;
44722;SDS011;30451;48.638;10.624;2024-03-02T01:57:49;1.58;;;1.05;;
44722;SDS011;30451;48.638;10.624;2024-03-02T02:00:18;1.70;;;1.15;;
44722;SDS011;30451;48.638;10.624;2024-03-02T02:02:45;1.33;;;1.00;;
44722;SDS011;30451;48.638;10.624;2024-03-02T02:07:41;2.05;;;1.02;;
44722;SDS011;30451;48.638;10.624;2024-03-02T02:10:07;1.50;;;1.10;;
44722;SDS011;30451;48.638;10.624;2024-03-02T02:12:34;1.23;;;0.90;;
44722;SDS011;30451;48.638;10.624;2024-03-02T02:15:01;1.30;;;0.98;;
44722;SDS011;30451;48.638;10.624;2024-03-02T02:17:27;1.55;;;1.00;;
44722;SDS011;30451;48.638;10.624;2024-03-02T02:19:52;2.08;;;1.30;;
44722;SDS011;30451;48.638;10.624;2024-03-02T02:22:18;1.75;;;1.10;;
44722;SDS011;30451;48.638;10.624;2024-03-02T02:24:43;1.48;;;1.00;;
44722;SDS011;30451;48.638;10.624;2024-03-02T02:27:09;1.45;;;1.00;;
44722;SDS011;30451;48.638;10.624;2024-03-02T02:29:35;2.00;;;1.10;;
44722;SDS011;30451;48.638;10.624;2024-03-02T02:32:01;1.98;;;1.10;;
44722;SDS011;30451;48.638;10.624;2024-03-02T02:34:27;1.40;;;1.00;;
44722;SDS011;30451;48.638;10.624;2024-03-02T02:36:53;2.28;;;1.00;;
44722;SDS011;30451;48.638;10.624;2024-03-02T02:39:19;1.83;;;1.20;;
44722;SDS011;30451;48.638;10.624;2024-03-02T02:41:47;1.35;;;0.90;;
44722;SDS011;30451;48.638;10.624;2024-03-02T02:44:13;1.33;;;1.02;;
44722;SDS011;30451;48.638;10.624;2024-03-02T02:46:39;1.90;;;1.05;;
44722;SDS011;30451;48.638;10.624;2024-03-02T02:49:05;1.80;;;1.00;;
44722;SDS011;30451;48.638;10.624;2024-03-02T02:51:31;1.38;;;1.00;;
44722;SDS011;30451;48.638;10.624;2024-03-02T02:53:57;1.83;;;1.10;;
44722;SDS011;30451;48.638;10.624;2024-03-02T02:56:22;1.55;;;1.08;;
44722;SDS011;30451;48.638;10.624;2024-03-02T02:58:48;1.45;;;1.00;;
44722;SDS011;30451;48.638;10.624;2024-03-02T03:01:14;2.00;;;1.00;;
44722;SDS011;30451;48.638;10.624;2024-03-02T03:03:42;1.33;;;1.00;;
44722;SDS011;30451;48.638;10.624;2024-03-02T03:06:08;1.63;;;1.00;;
44722;SDS011;30451;48.638;10.624;2024-03-02T03:08:34;1.95;;;1.10;;
44722;SDS011;30451;48.638;10.624;2024-03-02T03:11:00;1.63;;;1.02;;
44722;SDS011;30451;48.638;10.624;2024-03-02T03:13:26;1.10;;;0.90;;
44722;SDS011;30451;48.638;10.624;2024-03-02T03:15:51;1.05;;;0.90;;
44722;SDS011;30451;48.638;10.624;2024-03-02T03:18:17;1.80;;;1.20;;
44722;SDS011;30451;48.638;10.624;2024-03-02T03:20:43;1.90;;;1.10;;
44722;SDS011;30451;48.638;10.624;2024-03-02T03:23:09;1.20;;;0.90;;
44722;SDS011;30451;48.638;10.624;2024-03-02T03:25:40;1.55;;;1.10;;
44722;SDS011;30451;48.638;10.624;2024-03-02T03:28:06;1.85;;;1.10;;
44722;SDS011;30451;48.638;10.624;2024-03-02T03:30:32;1.15;;;0.93;;
44722;SDS011;30451;48.638;10.624;2024-03-02T03:32:57;1.40;;;1.00;;
44722;SDS011;30451;48.638;10.624;2024-03-02T03:35:23;1.20;;;0.90;;
44722;SDS011;30451;48.638;10.624;2024-03-02T03:37:48;1.50;;;1.10;;
44722;SDS011;30451;48.638;10.624;2024-03-02T03:40:14;1.50;;;1.00;;
44722;SDS011;30451;48.638;10.624;2024-03-02T03:42:40;1.60;;;1.10;;
44722;SDS011;30451;48.638;10.624;2024-03-02T03:45:05;1.05;;;0.90;;
44722;SDS011;30451;48.638;10.624;2024-03-02T03:47:32;1.38;;;1.00;;
44722;SDS011;30451;48.638;10.624;2024-03-02T03:49:58;1.65;;;1.10;;
44722;SDS011;30451;48.638;10.624;2024-03-02T03:52:23;1.50;;;1.00;;
44722;SDS011;30451;48.638;10.624;2024-03-02T03:54:49;1.45;;;1.00;;
44722;SDS011;30451;48.638;10.624;2024-03-02T03:57:15;1.35;;;1.00;;
44722;SDS011;30451;48.638;10.624;2024-03-02T03:59:41;1.33;;;1.00;;
44722;SDS011;30451;48.638;10.624;2024-03-02T04:02:07;1.02;;;0.90;;
44722;SDS011;30451;48.638;10.624;2024-03-02T04:04:34;1.50;;;1.10;;
44722;SDS011;30451;48.638;10.624;2024-03-02T04:07:00;1.80;;;1.10;;
44722;SDS011;30451;48.638;10.624;2024-03-02T04:09:26;1.75;;;1.13;;
44722;SDS011;30451;48.638;10.624;2024-03-02T04:11:52;1.05;;;0.90;;
44722;SDS011;30451;48.638;10.624;2024-03-02T04:14:18;1.15;;;0.90;;
44722;SDS011;30451;48.638;10.624;2024-03-02T04:16:43;1.95;;;1.02;;
44722;SDS011;30451;48.638;10.624;2024-03-02T04:19:09;1.55;;;1.10;;
44722;SDS011;30451;48.638;10.624;2024-03-02T04:21:34;1.38;;;1.00;;
44722;SDS011;30451;48.638;10.624;2024-03-02T04:24:00;1.30;;;1.00;;
44722;SDS011;30451;48.638;10.624;2024-03-02T04:26:26;1.70;;;1.10;;
44722;SDS011;30451;48.638;10.624;2024-03-02T04:28:52;1.67;;;0.90;;
44722;SDS011;30451;48.638;10.624;2024-03-02T04:31:18;1.17;;;0.90;;
44722;SDS011;30451;48.638;10.624;2024-03-02T04:33:44;1.17;;;0.80;;
44722;SDS011;30451;48.638;10.624;2024-03-02T04:36:10;1.17;;;0.90;;
44722;SDS011;30451;48.638;10.624;2024-03-02T04:38:36;1.50;;;0.93;;
44722;SDS011;30451;48.638;10.624;2024-03-02T04:41:03;1.40;;;1.00;;
44722;SDS011;30451;48.638;10.624;2024-03-02T04:43:31;1.83;;;0.90;;
44722;SDS011;30451;48.638;10.624;2024-03-02T04:45:57;1.67;;;1.15;;
44722;SDS011;30451;48.638;10.624;2024-03-02T04:48:23;1.08;;;0.80;;
44722;SDS011;30451;48.638;10.624;2024-03-02T04:50:49;1.30;;;0.98;;
44722;SDS011;30451;48.638;10.624;2024-03-02T04:53:14;1.23;;;0.90;;
44722;SDS011;30451;48.638;10.624;2024-03-02T04:55:40;1.38;;;1.00;;
44722;SDS011;30451;48.638;10.624;2024-03-02T04:58:05;1.00;;;0.90;;
44722;SDS011;30451;48.638;10.624;2024-03-02T05:00:34;1.05;;;0.85;;
44722;SDS011;30451;48.638;10.624;2024-03-02T05:03:00;1.23;;;1.00;;
44722;SDS011;30451;48.638;10.624;2024-03-02T05:05:26;1.08;;;0.90;;
44722;SDS011;30451;48.638;10.624;2024-03-02T05:07:52;1.40;;;0.98;;
44722;SDS011;30451;48.638;10.624;2024-03-02T05:10:17;1.48;;;1.00;;
44722;SDS011;30451;48.638;10.624;2024-03-02T05:12:43;1.25;;;1.00;;
44722;SDS011;30451;48.638;10.624;2024-03-02T05:15:13;1.67;;;1.13;;
44722;SDS011;30451;48.638;10.624;2024-03-02T05:17:40;1.13;;;0.98;;
44722;SDS011;30451;48.638;10.624;2024-03-02T05:20:09;1.55;;;1.00;;
44722;SDS011;30451;48.638;10.624;2024-03-02T05:22:35;1.52;;;0.98;;
44722;SDS011;30451;48.638;10.624;2024-03-02T05:25:02;1.27;;;0.85;;
44722;SDS011;30451;48.638;10.624;2024-03-02T05:27:29;1.88;;;1.10;;
44722;SDS011;30451;48.638;10.624;2024-03-02T05:29:55;2.13;;;1.20;;
44722;SDS011;30451;48.638;10.624;2024-03-02T05:32:21;1.50;;;1.10;;
44722;SDS011;30451;48.638;10.624;2024-03-02T05:34:47;1.55;;;1.00;;
44722;SDS011;30451;48.638;10.624;2024-03-02T05:37:12;1.55;;;1.10;;
44722;SDS011;30451;48.638;10.624;2024-03-02T05:39:38;1.63;;;1.10;;
44722;SDS011;30451;48.638;10.624;2024-03-02T05:42:03;1.50;;;1.10;;
44722;SDS011;30451;48.638;10.624;2024-03-02T05:44:29;1.10;;;0.93;;
44722;SDS011;30451;48.638;10.624;2024-03-02T05:46:55;1.42;;;1.00;;
44722;SDS011;30451;48.638;10.624;2024-03-02T05:49:21;1.52;;;1.02;;
44722;SDS011;30451;48.638;10.624;2024-03-02T05:51:47;1.30;;;0.90;;
44722;SDS011;30451;48.638;10.624;2024-03-02T05:54:12;1.63;;;1.00;;
44722;SDS011;30451;48.638;10.624;2024-03-02T05:56:38;1.90;;;1.10;;
44722;SDS011;30451;48.638;10.624;2024-03-02T05:59:03;1.27;;;0.85;;
44722;SDS011;30451;48.638;10.624;2024-03-02T06:01:47;1.83;;;1.20;;
44722;SDS011;30451;48.638;10.624;2024-03-02T06:04:15;1.23;;;0.90;;
44722;SDS011;30451;48.638;10.624;2024-03-02T06:06:41;1.25;;;0.90;;
44722;SDS011;30451;48.638;10.624;2024-03-02T06:09:07;1.20;;;0.90;;
44722;SDS011;30451;48.638;10.624;2024-03-02T06:11:36;1.67;;;1.05;;
44722;SDS011;30451;48.638;10.624;2024-03-02T06:14:02;1.50;;;1.00;;
44722;SDS011;30451;48.638;10.624;2024-03-02T06:16:28;1.30;;;1.00;;
44722;SDS011;30451;48.638;10.624;2024-03-02T06:18:55;1.10;;;0.80;;
44722;SDS011;30451;48.638;10.624;2024-03-02T06:21:22;1.25;;;0.90;;
44722;SDS011;30451;48.638;10.624;2024-03-02T06:23:51;1.55;;;1.10;;
44722;SDS011;30451;48.638;10.624;2024-03-02T06:26:17;1.23;;;0.93;;
44722;SDS011;30451;48.638;10.624;2024-03-02T06:28:44;1.77;;;0.90;;
44722;SDS011;30451;48.638;10.624;2024-03-02T06:31:10;1.40;;;1.05;;
44722;SDS011;30451;48.638;10.624;2024-03-02T06:33:36;1.05;;;0.90;;
44722;SDS011;30451;48.638;10.624;2024-03-02T06:36:01;1.52;;;1.00;;
44722;SDS011;30451;48.638;10.624;2024-03-02T06:38:28;1.35;;;0.90;;
44722;SDS011;30451;48.638;10.624;2024-03-02T06:40:54;1.00;;;0.90;;
44722;SDS011;30451;48.638;10.624;2024-03-02T06:43:22;1.35;;;0.90;;
44722;SDS011;30451;48.638;10.624;2024-03-02T06:45:48;1.33;;;0.98;;
44722;SDS011;30451;48.638;10.624;2024-03-02T06:48:17;1.58;;;1.10;;
44722;SDS011;30451;48.638;10.624;2024-03-02T06:50:48;1.23;;;0.90;;
44722;SDS011;30451;48.638;10.624;2024-03-02T06:55:44;1.35;;;1.00;;
44722;SDS011;30451;48.638;10.624;2024-03-02T06:58:11;1.42;;;1.08;;
44722;SDS011;30451;48.638;10.624;2024-03-02T07:00:37;2.03;;;1.20;;
44722;SDS011;30451;48.638;10.624;2024-03-02T07:03:03;1.45;;;1.00;;
44722;SDS011;30451;48.638;10.624;2024-03-02T07:05:29;1.10;;;0.90;;
44722;SDS011;30451;48.638;10.624;2024-03-02T07:07:54;1.40;;;1.00;;
44722;SDS011;30451;48.638;10.624;2024-03-02T07:10:20;1.20;;;0.90;;
44722;SDS011;30451;48.638;10.624;2024-03-02T07:12:45;1.13;;;0.90;;
44722;SDS011;30451;48.638;10.624;2024-03-02T07:15:11;1.67;;;1.20;;
44722;SDS011;30451;48.638;10.624;2024-03-02T07:17:53;1.50;;;1.00;;
44722;SDS011;30451;48.638;10.624;2024-03-02T07:20:19;1.40;;;0.90;;
44722;SDS011;30451;48.638;10.624;2024-03-02T07:22:45;0.93;;;0.73;;
44722;SDS011;30451;48.638;10.624;2024-03-02T07:25:11;1.17;;;0.88;;
44722;SDS011;30451;48.638;10.624;2024-03-02T07:27:37;1.35;;;0.90;;
44722;SDS011;30451;48.638;10.624;2024-03-02T07:30:04;1.30;;;0.98;;
44722;SDS011;30451;48.638;10.624;2024-03-02T07:32:30;1.35;;;1.00;;
44722;SDS011;30451;48.638;10.624;2024-03-02T07:34:55;1.27;;;0.88;;
44722;SDS011;30451;48.638;10.624;2024-03-02T07:37:21;1.45;;;0.90;;
44722;SDS011;30451;48.638;10.624;2024-03-02T07:39:48;1.73;;;1.13;;
44722;SDS011;30451;48.638;10.624;2024-03-02T07:42:13;1.75;;;1.10;;
44722;SDS011;30451;48.638;10.624;2024-03-02T07:44:40;1.23;;;0.90;;
44722;SDS011;30451;48.638;10.624;2024-03-02T07:47:05;1.05;;;0.85;;
44722;SDS011;30451;48.638;10.624;2024-03-02T07:49:31;1.40;;;0.95;;
44722;SDS011;30451;48.638;10.624;2024-03-02T07:51:57;1.27;;;1.00;;
44722;SDS011;30451;48.638;10.624;2024-03-02T07:54:23;1.50;;;1.08;;
44722;SDS011;30451;48.638;10.624;2024-03-02T07:56:49;1.73;;;1.17;;
44722;SDS011;30451;48.638;10.624;2024-03-02T07:59:14;1.48;;;1.08;;
44722;SDS011;30451;48.638;10.624;2024-03-02T08:01:40;1.10;;;0.98;;
44722;SDS011;30451;48.638;10.624;2024-03-02T08:04:06;1.88;;;1.10;;
44722;SDS011;30451;48.638;10.624;2024-03-02T08:06:32;1.45;;;0.98;;
44722;SDS011;30451;48.638;10.624;2024-03-02T08:08:59;1.52;;;1.00;;
44722;SDS011;30451;48.638;10.624;2024-03-02T08:11:25;1.10;;;0.90;;
44722;SDS011;30451;48.638;10.624;2024-03-02T08:13:52;1.20;;;0.90;;
44722;SDS011;30451;48.638;10.624;2024-03-02T08:16:20;1.50;;;1.00;;
44722;SDS011;30451;48.638;10.624;2024-03-02T08:18:49;1.50;;;0.93;;
44722;SDS011;30451;48.638;10.624;2024-03-02T08:21:16;0.93;;;0.80;;
44722;SDS011;30451;48.638;10.624;2024-03-02T08:23:44;1.58;;;0.88;;
44722;SDS011;30451;48.638;10.624;2024-03-02T08:26:10;1.95;;;1.00;;
44722;SDS011;30451;48.638;10.624;2024-03-02T08:28:36;1.48;;;1.08;;
44722;SDS011;30451;48.638;10.624;2024-03-02T08:31:02;2.42;;;1.10;;
44722;SDS011;30451;48.638;10.624;2024-03-02T08:33:28;1.15;;;0.82;;
44722;SDS011;30451;48.638;10.624;2024-03-02T08:35:54;1.50;;;1.00;;
44722;SDS011;30451;48.638;10.624;2024-03-02T08:38:20;1.23;;;1.00;;
44722;SDS011;30451;48.638;10.624;2024-03-02T08:40:46;1.10;;;1.00;;
44722;SDS011;30451;48.638;10.624;2024-03-02T08:43:12;1.42;;;1.00;;
44722;SDS011;30451;48.638;10.624;2024-03-02T08:45:38;1.10;;;0.90;;
44722;SDS011;30451;48.638;10.624;2024-03-02T08:48:05;1.08;;;0.90;;
44722;SDS011;30451;48.638;10.624;2024-03-02T08:50:34;2.55;;;1.10;;
44722;SDS011;30451;48.638;10.624;2024-03-02T08:53:00;1.63;;;1.10;;
44722;SDS011;30451;48.638;10.624;2024-03-02T08:55:26;1.52;;;1.13;;
44722;SDS011;30451;48.638;10.624;2024-03-02T08:57:51;1.45;;;0.98;;
44722;SDS011;30451;48.638;10.624;2024-03-02T09:00:18;1.30;;;1.00;;
44722;SDS011;30451;48.638;10.624;2024-03-02T09:02:44;1.58;;;1.00;;
44722;SDS011;30451;48.638;10.624;2024-03-02T09:05:10;1.52;;;0.93;;
44722;SDS011;30451;48.638;10.624;2024-03-02T09:07:36;1.60;;;1.10;;
44722;SDS011;30451;48.638;10.624;2024-03-02T09:10:04;1.73;;;1.00;;
44722;SDS011;30451;48.638;10.624;2024-03-02T09:12:31;1.75;;;1.00;;
44722;SDS011;30451;48.638;10.624;2024-03-02T09:14:56;0.95;;;0.90;;
44722;SDS011;30451;48.638;10.624;2024-03-02T09:17:22;1.98;;;1.00;;
44722;SDS011;30451;48.638;10.624;2024-03-02T09:19:48;1.42;;;1.02;;
44722;SDS011;30451;48.638;10.624;2024-03-02T09:22:17;1.55;;;1.10;;
44722;SDS011;30451;48.638;10.624;2024-03-02T09:24:43;1.77;;;1.00;;
44722;SDS011;30451;48.638;10.624;2024-03-02T09:27:09;1.58;;;1.00;;
44722;SDS011;30451;48.638;10.624;2024-03-02T09:29:34;1.95;;;1.20;;
44722;SDS011;30451;48.638;10.624;2024-03-02T09:32:00;1.50;;;0.90;;
44722;SDS011;30451;48.638;10.624;2024-03-02T09:34:26;1.60;;;1.10;;
44722;SDS011;30451;48.638;10.624;2024-03-02T09:36:51;1.88;;;0.90;;
44722;SDS011;30451;48.638;10.624;2024-03-02T09:39:17;1.92;;;1.10;;
44722;SDS011;30451;48.638;10.624;2024-03-02T09:41:43;1.17;;;0.93;;
44722;SDS011;30451;48.638;10.624;2024-03-02T09:44:09;1.30;;;1.00;;
44722;SDS011;30451;48.638;10.624;2024-03-02T09:46:35;1.75;;;1.10;;
44722;SDS011;30451;48.638;10.624;2024-03-02T09:49:01;1.95;;;1.10;;
44722;SDS011;30451;48.638;10.624;2024-03-02T09:51:27;1.65;;;1.10;;
44722;SDS011;30451;48.638;10.624;2024-03-02T09:53:54;1.33;;;0.90;;
44722;SDS011;30451;48.638;10.624;2024-03-02T09:56:23;1.30;;;0.90;;
44722;SDS011;30451;48.638;10.624;2024-03-02T09:58:48;1.20;;;0.90;;
44722;SDS011;30451;48.638;10.624;2024-03-02T10:01:14;0.90;;;0.82;;
44722;SDS011;30451;48.638;10.624;2024-03-02T10:03:40;1.23;;;0.80;;
44722;SDS011;30451;48.638;10.624;2024-03-02T10:08:50;1.20;;;0.80;;
44722;SDS011;30451;48.638;10.624;2024-03-02T10:11:32;1.98;;;0.80;;
44722;SDS011;30451;48.638;10.624;2024-03-02T10:14:13;1.65;;;1.00;;
44722;SDS011;30451;48.638;10.624;2024-03-02T10:16:39;1.08;;;0.75;;
44722;SDS011;30451;48.638;10.624;2024-03-02T10:19:16;1.85;;;1.10;;
44722;SDS011;30451;48.638;10.624;2024-03-02T10:21:42;2.13;;;0.95;;
44722;SDS011;30451;48.638;10.624;2024-03-02T10:24:08;1.92;;;0.95;;
44722;SDS011;30451;48.638;10.624;2024-03-02T10:26:34;1.52;;;0.88;;
44722;SDS011;30451;48.638;10.624;2024-03-02T10:29:00;1.05;;;0.80;;
44722;SDS011;30451;48.638;10.624;2024-03-02T10:31:25;1.13;;;1.00;;
44722;SDS011;30451;48.638;10.624;2024-03-02T10:33:54;1.30;;;0.82;;
44722;SDS011;30451;48.638;10.624;2024-03-02T10:36:20;1.30;;;0.90;;
44722;SDS011;30451;48.638;10.624;2024-03-02T10:38:46;0.95;;;0.70;;
44722;SDS011;30451;48.638;10.624;2024-03-02T10:41:16;1.95;;;0.90;;
44722;SDS011;30451;48.638;10.624;2024-03-02T10:43:43;0.80;;;0.77;;
44722;SDS011;30451;48.638;10.624;2024-03-02T10:46:09;1.10;;;0.80;;
44722;SDS011;30451;48.638;10.624;2024-03-02T10:48:39;0.82;;;0.80;;
44722;SDS011;30451;48.638;10.624;2024-03-02T10:51:06;1.33;;;0.90;;
44722;SDS011;30451;48.638;10.624;2024-03-02T10:53:32;1.33;;;0.80;;
44722;SDS011;30451;48.638;10.624;2024-03-02T10:55:58;1.80;;;0.88;;
44722;SDS011;30451;48.638;10.624;2024-03-02T10:58:31;1.40;;;0.95;;
44722;SDS011;30451;48.638;10.624;2024-03-02T11:01:02;1.63;;;0.80;;
44722;SDS011;30451;48.638;10.624;2024-03-02T11:03:33;1.85;;;0.73;;
44722;SDS011;30451;48.638;10.624;2024-03-02T11:06:00;1.25;;;0.80;;
44722;SDS011;30451;48.638;10.624;2024-03-02T11:08:31;1.08;;;0.80;;
44722;SDS011;30451;48.638;10.624;2024-03-02T11:11:06;1.10;;;0.90;;
44722;SDS011;30451;48.638;10.624;2024-03-02T11:13:37;1.20;;;0.80;;
44722;SDS011;30451;48.638;10.624;2024-03-02T11:16:09;1.50;;;0.90;;
44722;SDS011;30451;48.638;10.624;2024-03-02T11:18:59;1.02;;;0.80;;
44722;SDS011;30451;48.638;10.624;2024-03-02T11:21:27;1.63;;;1.10;;
44722;SDS011;30451;48.638;10.624;2024-03-02T11:23:53;1.20;;;0.80;;
44722;SDS011;30451;48.638;10.624;2024-03-02T11:28:44;1.92;;;0.90;;
44722;SDS011;30451;48.638;10.624;2024-03-02T11:31:10;0.90;;;0.80;;
44722;SDS011;30451;48.638;10.624;2024-03-02T11:33:36;1.55;;;0.90;;
44722;SDS011;30451;48.638;10.624;2024-03-02T11:36:02;2.17;;;1.00;;
44722;SDS011;30451;48.638;10.624;2024-03-02T11:38:29;2.05;;;0.90;;
44722;SDS011;30451;48.638;10.624;2024-03-02T11:40:59;1.30;;;0.90;;
44722;SDS011;30451;48.638;10.624;2024-03-02T11:43:27;1.50;;;0.95;;
44722;SDS011;30451;48.638;10.624;2024-03-02T11:46:00;1.25;;;0.93;;
44722;SDS011;30451;48.638;10.624;2024-03-02T11:48:29;1.35;;;0.90;;
44722;SDS011;30451;48.638;10.624;2024-03-02T11:50:54;1.88;;;0.93;;
44722;SDS011;30451;48.638;10.624;2024-03-02T11:53:23;2.00;;;1.00;;
44722;SDS011;30451;48.638;10.624;2024-03-02T11:55:52;2.17;;;1.20;;
44722;SDS011;30451;48.638;10.624;2024-03-02T11:58:23;2.95;;;0.90;;
44722;SDS011;30451;48.638;10.624;2024-03-02T12:00:52;1.20;;;1.00;;
44722;SDS011;30451;48.638;10.624;2024-03-02T12:03:20;1.27;;;0.90;;
44722;SDS011;30451;48.638;10.624;2024-03-02T12:05:52;2.38;;;0.90;;
44722;SDS011;30451;48.638;10.624;2024-03-02T12:08:19;2.22;;;0.93;;
44722;SDS011;30451;48.638;10.624;2024-03-02T12:10:55;1.80;;;0.90;;
44722;SDS011;30451;48.638;10.624;2024-03-02T12:13:23;2.25;;;1.00;;
44722;SDS011;30451;48.638;10.624;2024-03-02T12:15:48;2.20;;;0.93;;
44722;SDS011;30451;48.638;10.624;2024-03-02T12:18:20;1.52;;;1.10;;
44722;SDS011;30451;48.638;10.624;2024-03-02T12:20:45;2.15;;;0.90;;
44722;SDS011;30451;48.638;10.624;2024-03-02T12:23:13;1.45;;;0.90;;
44722;SDS011;30451;48.638;10.624;2024-03-02T12:25:39;2.75;;;1.00;;
44722;SDS011;30451;48.638;10.624;2024-03-02T12:28:05;2.22;;;1.10;;
44722;SDS011;30451;48.638;10.624;2024-03-02T12:30:35;2.90;;;1.20;;
44722;SDS011;30451;48.638;10.624;2024-03-02T12:33:04;3.25;;;1.10;;
44722;SDS011;30451;48.638;10.624;2024-03-02T12:35:30;4.75;;;1.20;;
44722;SDS011;30451;48.638;10.624;2024-03-02T12:37:56;2.42;;;1.23;;
44722;SDS011;30451;48.638;10.624;2024-03-02T12:40:24;2.60;;;1.20;;
44722;SDS011;30451;48.638;10.624;2024-03-02T12:42:50;2.88;;;1.20;;
44722;SDS011;30451;48.638;10.624;2024-03-02T12:45:16;1.98;;;1.10;;
44722;SDS011;30451;48.638;10.624;2024-03-02T12:47:49;2.38;;;1.20;;
44722;SDS011;30451;48.638;10.624;2024-03-02T12:50:16;3.63;;;1.20;;
44722;SDS011;30451;48.638;10.624;2024-03-02T12:52:43;1.70;;;1.15;;
44722;SDS011;30451;48.638;10.624;2024-03-02T12:55:09;1.63;;;0.90;;
44722;SDS011;30451;48.638;10.624;2024-03-02T12:57:35;2.80;;;1.05;;
44722;SDS011;30451;48.638;10.624;2024-03-02T13:00:02;1.30;;;1.00;;
44722;SDS011;30451;48.638;10.624;2024-03-02T13:02:34;1.42;;;0.98;;
44722;SDS011;30451;48.638;10.624;2024-03-02T13:05:00;3.08;;;1.23;;
44722;SDS011;30451;48.638;10.624;2024-03-02T13:07:26;2.97;;;1.10;;
44722;SDS011;30451;48.638;10.624;2024-03-02T13:09:53;2.58;;;1.17;;
44722;SDS011;30451;48.638;10.624;2024-03-02T13:12:22;2.65;;;1.23;;
44722;SDS011;30451;48.638;10.624;2024-03-02T13:14:52;1.88;;;1.10;;
44722;SDS011;30451;48.638;10.624;2024-03-02T13:17:18;2.85;;;1.10;;
44722;SDS011;30451;48.638;10.624;2024-03-02T13:19:51;1.85;;;1.10;;
44722;SDS011;30451;48.638;10.624;2024-03-02T13:22:18;1.98;;;1.00;;
44722;SDS011;30451;48.638;10.624;2024-03-02T13:24:44;1.45;;;0.90;;
44722;SDS011;30451;48.638;10.624;2024-03-02T13:27:09;2.30;;;1.00;;
44722;SDS011;30451;48.638;10.624;2024-03-02T13:29:35;1.42;;;0.80;;
44722;SDS011;30451;48.638;10.624;2024-03-02T13:32:01;1.50;;;0.90;;
44722;SDS011;30451;48.638;10.624;2024-03-02T13:34:26;1.55;;;0.90;;
44722;SDS011;30451;48.638;10.624;2024-03-02T13:36:52;1.80;;;0.98;;
44722;SDS011;30451;48.638;10.624;2024-03-02T13:39:17;1.90;;;0.82;;
44722;SDS011;30451;48.638;10.624;2024-03-02T13:41:43;1.67;;;0.95;;
44722;SDS011;30451;48.638;10.624;2024-03-02T13:44:17;1.58;;;0.93;;
44722;SDS011;30451;48.638;10.624;2024-03-02T13:46:43;2.00;;;1.00;;
44722;SDS011;30451;48.638;10.624;2024-03-02T13:49:10;1.45;;;0.95;;
44722;SDS011;30451;48.638;10.624;2024-03-02T13:51:36;2.78;;;1.13;;
44722;SDS011;30451;48.638;10.624;2024-03-02T13:54:02;1.63;;;1.08;;
44722;SDS011;30451;48.638;10.624;2024-03-02T13:56:28;2.05;;;1.02;;
44722;SDS011;30451;48.638;10.624;2024-03-02T13:58:54;2.00;;;1.17;;
44722;SDS011;30451;48.638;10.624;2024-03-02T14:01:20;2.28;;;1.10;;
44722;SDS011;30451;48.638;10.624;2024-03-02T14:03:46;1.70;;;1.05;;
44722;SDS011;30451;48.638;10.624;2024-03-02T14:06:12;1.30;;;0.90;;
44722;SDS011;30451;48.638;10.624;2024-03-02T14:08:38;3.70;;;1.15;;
44722;SDS011;30451;48.638;10.624;2024-03-02T14:11:03;3.40;;;1.30;;
44722;SDS011;30451;48.638;10.624;2024-03-02T14:13:29;2.65;;;1.30;;
44722;SDS011;30451;48.638;10.624;2024-03-02T14:15:55;2.28;;;1.40;;
44722;SDS011;30451;48.638;10.624;2024-03-02T14:18:20;2.88;;;1.30;;
44722;SDS011;30451;48.638;10.624;2024-03-02T14:20:46;2.28;;;1.20;;
44722;SDS011;30451;48.638;10.624;2024-03-02T14:23:17;2.28;;;1.23;;
44722;SDS011;30451;48.638;10.624;2024-03-02T14:25:46;2.25;;;1.20;;
44722;SDS011;30451;48.638;10.624;2024-03-02T14:28:12;3.33;;;1.80;;
44722;SDS011;30451;48.638;10.624;2024-03-02T14:30:38;2.42;;;1.27;;
44722;SDS011;30451;48.638;10.624;2024-03-02T14:33:04;2.45;;;1.00;;
44722;SDS011;30451;48.638;10.624;2024-03-02T14:35:29;2.20;;;1.40;;
44722;SDS011;30451;48.638;10.624;2024-03-02T14:37:55;2.72;;;1.40;;
44722;SDS011;30451;48.638;10.624;2024-03-02T14:40:22;2.28;;;1.30;;
44722;SDS011;30451;48.638;10.624;2024-03-02T14:42:51;3.08;;;1.30;;
44722;SDS011;30451;48.638;10.624;2024-03-02T14:45:17;3.00;;;1.40;;